sensor_id;sensor_type;location;lat;lon;timestamp;pressure;altitude;pressure_sealevel;temperature;humidity
9822;BME280;4950;46.042;14.472;2023-02-18T00:01:20;98957.31;;;8.22;75.14
9822;BME280;4950;46.042;14.472;2023-02-18T00:03:47;98959.63;;;8.25;75.13
9822;BME280;4950;46.042;14.472;2023-02-18T00:06:16;98936.22;;;8.26;74.92
9822;BME280;4950;46.042;14.472;2023-02-18T00:08:44;98950.09;;;8.25;74.75
9822;BME280;4950;46.042;14.472;2023-02-18T00:11:13;98951.06;;;8.24;75.17
9822;BME280;4950;46.042;14.472;2023-02-18T00:13:40;98953.66;;;8.24;75.05
9822;BME280;4950;46.042;14.472;2023-02-18T00:16:09;98950.78;;;8.27;75.07
9822;BME280;4950;46.042;14.472;2023-02-18T00:18:36;98941.25;;;8.28;75.58
9822;BME280;4950;46.042;14.472;2023-02-18T00:21:03;98950.78;;;8.27;75.30
9822;BME280;4950;46.042;14.472;2023-02-18T00:23:30;98949.84;;;8.28;75.38
9822;BME280;4950;46.042;14.472;2023-02-18T00:26:00;98953.38;;;8.27;75.87
9822;BME280;4950;46.042;14.472;2023-02-18T00:28:28;98955.16;;;8.27;76.27
9822;BME280;4950;46.042;14.472;2023-02-18T00:30:55;98952.44;;;8.28;76.04
9822;BME280;4950;46.042;14.472;2023-02-18T00:33:22;98953.13;;;8.30;76.05
9822;BME280;4950;46.042;14.472;2023-02-18T00:35:49;98960.88;;;8.30;76.25
9822;BME280;4950;46.042;14.472;2023-02-18T00:38:16;98947.94;;;8.30;76.19
9822;BME280;4950;46.042;14.472;2023-02-18T00:40:42;98955.03;;;8.28;76.77
9822;BME280;4950;46.042;14.472;2023-02-18T00:43:09;98952.56;;;8.27;77.15
9822;BME280;4950;46.042;14.472;2023-02-18T00:45:37;98948.59;;;8.23;77.33
9822;BME280;4950;46.042;14.472;2023-02-18T00:48:04;98949.28;;;8.25;77.27
9822;BME280;4950;46.042;14.472;2023-02-18T00:50:31;98951.88;;;8.25;77.01
9822;BME280;4950;46.042;14.472;2023-02-18T00:52:58;98949.28;;;8.25;77.42
9822;BME280;4950;46.042;14.472;2023-02-18T00:55:24;98939.75;;;8.25;77.23
9822;BME280;4950;46.042;14.472;2023-02-18T00:57:51;98945.91;;;8.24;77.86
9822;BME280;4950;46.042;14.472;2023-02-18T01:00:18;98941.09;;;8.20;77.68
9822;BME280;4950;46.042;14.472;2023-02-18T01:02:46;98940.41;;;8.18;78.17
9822;BME280;4950;46.042;14.472;2023-02-18T01:05:13;98942.88;;;8.19;78.30
9822;BME280;4950;46.042;14.472;2023-02-18T01:07:40;98924.91;;;8.18;77.78
9822;BME280;4950;46.042;14.472;2023-02-18T01:10:07;98941.22;;;8.18;77.65
9822;BME280;4950;46.042;14.472;2023-02-18T01:12:33;98930.63;;;8.21;77.11
9822;BME280;4950;46.042;14.472;2023-02-18T01:15:00;98936.75;;;8.20;77.10
9822;BME280;4950;46.042;14.472;2023-02-18T01:17:27;98942.75;;;8.21;77.23
9822;BME280;4950;46.042;14.472;2023-02-18T01:19:55;98933.22;;;8.21;77.30
9822;BME280;4950;46.042;14.472;2023-02-18T01:22:22;98937.44;;;8.22;77.16
9822;BME280;4950;46.042;14.472;2023-02-18T01:24:49;98929.69;;;8.22;76.56
9822;BME280;4950;46.042;14.472;2023-02-18T01:27:16;98927.09;;;8.22;76.65
9822;BME280;4950;46.042;14.472;2023-02-18T01:29:43;98911.84;;;8.19;76.82
9822;BME280;4950;46.042;14.472;2023-02-18T01:32:09;98917.41;;;8.15;77.21
9822;BME280;4950;46.042;14.472;2023-02-18T01:34:36;98932.94;;;8.15;76.82
9822;BME280;4950;46.042;14.472;2023-02-18T01:37:04;98921.91;;;8.13;77.46
9822;BME280;4950;46.042;14.472;2023-02-18T01:39:31;98934.97;;;8.11;77.56
9822;BME280;4950;46.042;14.472;2023-02-18T01:41:57;98929.66;;;8.13;76.95
9822;BME280;4950;46.042;14.472;2023-02-18T01:44:26;98910.72;;;8.12;77.29
9822;BME280;4950;46.042;14.472;2023-02-18T01:46:54;98914.97;;;8.13;77.56
9822;BME280;4950;46.042;14.472;2023-02-18T01:49:23;98904.63;;;8.13;76.99
9822;BME280;4950;46.042;14.472;2023-02-18T01:51:53;98911.41;;;8.14;77.40
9822;BME280;4950;46.042;14.472;2023-02-18T01:54:26;98911.41;;;8.14;77.26
9822;BME280;4950;46.042;14.472;2023-02-18T01:56:57;98920.69;;;8.17;77.19
9822;BME280;4950;46.042;14.472;2023-02-18T01:59:29;98915.66;;;8.15;76.75
9822;BME280;4950;46.042;14.472;2023-02-18T02:01:57;98918.09;;;8.17;77.01
9822;BME280;4950;46.042;14.472;2023-02-18T02:04:24;98917.41;;;8.15;76.66
9822;BME280;4950;46.042;14.472;2023-02-18T02:06:51;98908.44;;;8.19;76.42
9822;BME280;4950;46.042;14.472;2023-02-18T02:09:19;98905.97;;;8.17;76.84
9822;BME280;4950;46.042;14.472;2023-02-18T02:12:04;98902.59;;;8.17;77.31
9822;BME280;4950;46.042;14.472;2023-02-18T02:14:47;98905.19;;;8.17;76.75
9822;BME280;4950;46.042;14.472;2023-02-18T02:17:27;98905.19;;;8.17;77.36
9822;BME280;4950;46.042;14.472;2023-02-18T02:20:31;98917.81;;;8.20;77.10
9822;BME280;4950;46.042;14.472;2023-02-18T02:23:31;98915.53;;;8.17;77.48
9822;BME280;4950;46.042;14.472;2023-02-18T02:32:20;98895.50;;;8.19;76.86
9822;BME280;4950;46.042;14.472;2023-02-18T02:34:55;98880.25;;;8.16;77.26
9822;BME280;4950;46.042;14.472;2023-02-18T02:37:29;98892.38;;;8.15;77.63
9822;BME280;4950;46.042;14.472;2023-02-18T02:40:05;98903.53;;;8.16;77.64
9822;BME280;4950;46.042;14.472;2023-02-18T02:42:45;98890.03;;;8.12;77.71
9822;BME280;4950;46.042;14.472;2023-02-18T02:45:20;98894.81;;;8.17;77.06
9822;BME280;4950;46.042;14.472;2023-02-18T02:47:54;98890.47;;;8.17;77.46
9822;BME280;4950;46.042;14.472;2023-02-18T02:50:31;98888.81;;;8.16;77.16
9822;BME280;4950;46.042;14.472;2023-02-18T02:53:04;98884.31;;;8.18;76.91
9822;BME280;4950;46.042;14.472;2023-02-18T02:55:32;98881.06;;;8.16;77.25
9822;BME280;4950;46.042;14.472;2023-02-18T02:57:58;98878.47;;;8.16;76.75
9822;BME280;4950;46.042;14.472;2023-02-18T03:00:34;98879.31;;;8.17;76.58
9822;BME280;4950;46.042;14.472;2023-02-18T03:03:10;98879.69;;;8.12;76.97
9822;BME280;4950;46.042;14.472;2023-02-18T03:05:51;98881.88;;;8.07;77.25
9822;BME280;4950;46.042;14.472;2023-02-18T03:08:31;98895.63;;;8.07;77.12
9822;BME280;4950;46.042;14.472;2023-02-18T03:11:06;98904.31;;;8.06;77.11
9822;BME280;4950;46.042;14.472;2023-02-18T03:13:41;98902.16;;;8.11;77.11
9822;BME280;4950;46.042;14.472;2023-02-18T03:16:17;98905.72;;;8.10;76.57
9822;BME280;4950;46.042;14.472;2023-02-18T03:18:56;98902.16;;;8.11;76.50
9822;BME280;4950;46.042;14.472;2023-02-18T03:21:28;98889.09;;;8.13;76.73
9822;BME280;4950;46.042;14.472;2023-02-18T03:23:59;98879.69;;;8.12;76.41
9822;BME280;4950;46.042;14.472;2023-02-18T03:26:29;98884.88;;;8.12;77.04
9822;BME280;4950;46.042;14.472;2023-02-18T03:29:00;98886.63;;;8.11;76.59
9822;BME280;4950;46.042;14.472;2023-02-18T03:31:29;98879.31;;;8.17;76.49
9822;BME280;4950;46.042;14.472;2023-02-18T03:34:00;98888.13;;;8.14;76.66
9822;BME280;4950;46.042;14.472;2023-02-18T03:36:30;98884.75;;;8.14;76.77
9822;BME280;4950;46.042;14.472;2023-02-18T03:38:58;98887.75;;;8.19;76.80
9822;BME280;4950;46.042;14.472;2023-02-18T03:41:26;98893.72;;;8.19;76.62
9822;BME280;4950;46.042;14.472;2023-02-18T03:43:59;98901.25;;;8.22;76.72
9822;BME280;4950;46.042;14.472;2023-02-18T03:46:27;98893.06;;;8.27;76.06
9822;BME280;4950;46.042;14.472;2023-02-18T03:48:54;98893.88;;;8.27;76.20
9822;BME280;4950;46.042;14.472;2023-02-18T03:51:21;98890.59;;;8.25;76.45
9822;BME280;4950;46.042;14.472;2023-02-18T03:53:50;98887.34;;;8.23;76.33
9822;BME280;4950;46.042;14.472;2023-02-18T03:56:17;98889.94;;;8.23;76.54
9822;BME280;4950;46.042;14.472;2023-02-18T03:58:44;98886.94;;;8.28;76.25
9822;BME280;4950;46.042;14.472;2023-02-18T04:01:11;98889.13;;;8.33;76.50
9822;BME280;4950;46.042;14.472;2023-02-18T04:03:37;98890.47;;;8.27;76.57
9822;BME280;4950;46.042;14.472;2023-02-18T04:06:04;98892.09;;;8.28;76.00
9822;BME280;4950;46.042;14.472;2023-02-18T04:08:32;98894.44;;;8.31;75.78
9822;BME280;4950;46.042;14.472;2023-02-18T04:11:00;98898.25;;;8.37;76.13
9822;BME280;4950;46.042;14.472;2023-02-18T04:13:27;98901.09;;;8.34;75.62
9822;BME280;4950;46.042;14.472;2023-02-18T04:15:53;98898.66;;;8.32;76.28
9822;BME280;4950;46.042;14.472;2023-02-18T04:18:20;98898.78;;;8.30;76.42
9822;BME280;4950;46.042;14.472;2023-02-18T04:20:47;98897.16;;;8.29;76.56
9822;BME280;4950;46.042;14.472;2023-02-18T04:23:14;98907.25;;;8.33;75.93
9822;BME280;4950;46.042;14.472;2023-02-18T04:25:41;98899.19;;;8.36;76.30
9822;BME280;4950;46.042;14.472;2023-02-18T04:28:09;98903.69;;;8.34;76.18
9822;BME280;4950;46.042;14.472;2023-02-18T04:30:37;98890.63;;;8.35;76.63
9822;BME280;4950;46.042;14.472;2023-02-18T04:33:04;98899.47;;;8.33;76.28
9822;BME280;4950;46.042;14.472;2023-02-18T04:35:31;98890.91;;;8.32;76.15
9822;BME280;4950;46.042;14.472;2023-02-18T04:37:57;98891.84;;;8.31;76.04
9822;BME280;4950;46.042;14.472;2023-02-18T04:40:24;98896.88;;;8.33;76.49
9822;BME280;4950;46.042;14.472;2023-02-18T04:42:55;98880.69;;;8.30;76.32
9822;BME280;4950;46.042;14.472;2023-02-18T04:45:23;98883.41;;;8.29;76.27
9822;BME280;4950;46.042;14.472;2023-02-18T04:47:50;98884.91;;;8.31;76.17
9822;BME280;4950;46.042;14.472;2023-02-18T04:50:17;98884.75;;;8.33;76.45
9822;BME280;4950;46.042;14.472;2023-02-18T04:52:44;98886.53;;;8.33;75.66
9822;BME280;4950;46.042;14.472;2023-02-18T04:55:11;98887.47;;;8.31;75.97
9822;BME280;4950;46.042;14.472;2023-02-18T04:57:38;98868.44;;;8.33;76.02
9822;BME280;4950;46.042;14.472;2023-02-18T05:00:06;98874.53;;;8.31;76.09
9822;BME280;4950;46.042;14.472;2023-02-18T05:02:35;98866.78;;;8.31;75.74
9822;BME280;4950;46.042;14.472;2023-02-18T05:05:01;98859.88;;;8.32;75.67
9822;BME280;4950;46.042;14.472;2023-02-18T05:07:28;98860.66;;;8.33;76.06
9822;BME280;4950;46.042;14.472;2023-02-18T05:09:55;98850.31;;;8.33;76.21
9822;BME280;4950;46.042;14.472;2023-02-18T05:12:21;98864.06;;;8.33;75.57
9822;BME280;4950;46.042;14.472;2023-02-18T05:14:48;98857.28;;;8.32;75.83
9822;BME280;4950;46.042;14.472;2023-02-18T05:17:15;98857.00;;;8.35;76.05
9822;BME280;4950;46.042;14.472;2023-02-18T05:19:43;98866.25;;;8.38;75.94
9822;BME280;4950;46.042;14.472;2023-02-18T05:22:10;98866.25;;;8.38;75.55
9822;BME280;4950;46.042;14.472;2023-02-18T05:24:36;98864.50;;;8.38;75.47
9822;BME280;4950;46.042;14.472;2023-02-18T05:27:03;98868.56;;;8.41;75.27
9822;BME280;4950;46.042;14.472;2023-02-18T05:29:30;98875.44;;;8.42;75.09
9822;BME280;4950;46.042;14.472;2023-02-18T05:31:56;98869.53;;;8.40;75.54
9822;BME280;4950;46.042;14.472;2023-02-18T05:34:23;98864.22;;;8.41;75.25
9822;BME280;4950;46.042;14.472;2023-02-18T05:36:51;98861.66;;;8.41;75.33
9822;BME280;4950;46.042;14.472;2023-02-18T05:39:18;98857.31;;;8.42;75.61
9822;BME280;4950;46.042;14.472;2023-02-18T05:41:45;98864.09;;;8.43;75.14
9822;BME280;4950;46.042;14.472;2023-02-18T05:44:11;98868.34;;;8.44;75.52
9822;BME280;4950;46.042;14.472;2023-02-18T05:46:57;98869.16;;;8.44;75.20
9822;BME280;4950;46.042;14.472;2023-02-18T05:49:24;98864.53;;;8.48;75.01
9822;BME280;4950;46.042;14.472;2023-02-18T05:51:52;98866.16;;;8.49;74.41
9822;BME280;4950;46.042;14.472;2023-02-18T05:54:19;98868.88;;;8.47;75.08
9822;BME280;4950;46.042;14.472;2023-02-18T05:56:45;98862.06;;;8.46;75.19
9822;BME280;4950;46.042;14.472;2023-02-18T05:59:12;98871.44;;;8.47;75.24
9822;BME280;4950;46.042;14.472;2023-02-18T06:01:39;98864.53;;;8.48;74.67
9822;BME280;4950;46.042;14.472;2023-02-18T06:04:06;98875.56;;;8.50;74.60
9822;BME280;4950;46.042;14.472;2023-02-18T06:06:32;98876.38;;;8.50;75.07
9822;BME280;4950;46.042;14.472;2023-02-18T06:09:01;98873.91;;;8.49;75.20
9822;BME280;4950;46.042;14.472;2023-02-18T06:11:27;98877.34;;;8.49;75.31
9822;BME280;4950;46.042;14.472;2023-02-18T06:13:54;98888.63;;;8.48;75.06
9822;BME280;4950;46.042;14.472;2023-02-18T06:16:21;98896.94;;;8.52;74.58
9822;BME280;4950;46.042;14.472;2023-02-18T06:18:48;98901.16;;;8.53;74.64
9822;BME280;4950;46.042;14.472;2023-02-18T06:21:14;98896.81;;;8.54;75.05
9822;BME280;4950;46.042;14.472;2023-02-18T06:23:43;98893.13;;;8.56;74.36
9822;BME280;4950;46.042;14.472;2023-02-18T06:26:11;98894.06;;;8.55;74.09
9822;BME280;4950;46.042;14.472;2023-02-18T06:28:38;98897.50;;;8.56;74.82
9822;BME280;4950;46.042;14.472;2023-02-18T06:31:04;98900.88;;;8.56;74.44
9822;BME280;4950;46.042;14.472;2023-02-18T06:33:31;98894.06;;;8.55;74.77
9822;BME280;4950;46.042;14.472;2023-02-18T06:35:59;98900.63;;;8.59;74.54
9822;BME280;4950;46.042;14.472;2023-02-18T06:38:27;98900.47;;;8.61;74.58
9822;BME280;4950;46.042;14.472;2023-02-18T06:40:54;98903.91;;;8.61;74.30
9822;BME280;4950;46.042;14.472;2023-02-18T06:43:22;98905.38;;;8.64;73.92
9822;BME280;4950;46.042;14.472;2023-02-18T06:45:49;98912.06;;;8.66;74.28
9822;BME280;4950;46.042;14.472;2023-02-18T06:48:15;98913.41;;;8.70;74.53
9822;BME280;4950;46.042;14.472;2023-02-18T06:50:42;98900.63;;;8.69;74.08
9822;BME280;4950;46.042;14.472;2023-02-18T06:53:09;98893.94;;;8.66;73.85
9822;BME280;4950;46.042;14.472;2023-02-18T06:55:37;98894.22;;;8.63;74.31
9822;BME280;4950;46.042;14.472;2023-02-18T06:58:04;98894.91;;;8.65;74.37
9822;BME280;4950;46.042;14.472;2023-02-18T07:00:32;98896.53;;;8.66;75.00
9822;BME280;4950;46.042;14.472;2023-02-18T07:03:00;98899.78;;;8.68;74.66
9822;BME280;4950;46.042;14.472;2023-02-18T07:05:26;98903.91;;;8.71;74.25
9822;BME280;4950;46.042;14.472;2023-02-18T07:07:53;98911.50;;;8.73;74.45
9822;BME280;4950;46.042;14.472;2023-02-18T07:10:20;98913.97;;;8.74;74.05
9822;BME280;4950;46.042;14.472;2023-02-18T07:12:47;98913.53;;;8.79;73.91
9822;BME280;4950;46.042;14.472;2023-02-18T07:15:14;98916.97;;;8.79;73.35
9822;BME280;4950;46.042;14.472;2023-02-18T07:17:42;98901.69;;;8.86;73.58
9822;BME280;4950;46.042;14.472;2023-02-18T07:20:09;98914.09;;;8.82;73.54
9822;BME280;4950;46.042;14.472;2023-02-18T07:22:35;98905.25;;;8.85;74.12
9822;BME280;4950;46.042;14.472;2023-02-18T07:25:02;98903.47;;;8.85;73.78
9822;BME280;4950;46.042;14.472;2023-02-18T07:27:29;98900.59;;;8.88;73.73
9822;BME280;4950;46.042;14.472;2023-02-18T07:29:56;98902.09;;;8.91;73.11
9822;BME280;4950;46.042;14.472;2023-02-18T07:32:22;98912.59;;;8.89;73.08
9822;BME280;4950;46.042;14.472;2023-02-18T07:34:51;98909.88;;;8.91;73.53
9822;BME280;4950;46.042;14.472;2023-02-18T07:37:18;98913.94;;;8.94;73.32
9822;BME280;4950;46.042;14.472;2023-02-18T07:39:45;98902.91;;;8.92;73.03
9822;BME280;4950;46.042;14.472;2023-02-18T07:42:12;98914.25;;;8.91;73.17
9822;BME280;4950;46.042;14.472;2023-02-18T07:44:40;98909.06;;;8.91;73.36
9822;BME280;4950;46.042;14.472;2023-02-18T07:47:09;98914.50;;;8.97;73.21
9822;BME280;4950;46.042;14.472;2023-02-18T07:49:38;98910.81;;;9.00;73.53
9822;BME280;4950;46.042;14.472;2023-02-18T07:52:06;98917.06;;;9.07;73.54
9822;BME280;4950;46.042;14.472;2023-02-18T07:54:33;98913.25;;;9.11;72.78
9822;BME280;4950;46.042;14.472;2023-02-18T07:56:59;98906.59;;;9.08;72.02
9822;BME280;4950;46.042;14.472;2023-02-18T07:59:26;98904.00;;;9.08;72.54
9822;BME280;4950;46.042;14.472;2023-02-18T08:01:53;98913.13;;;9.13;72.28
9822;BME280;4950;46.042;14.472;2023-02-18T08:04:19;98909.84;;;9.11;72.45
9822;BME280;4950;46.042;14.472;2023-02-18T08:06:47;98902.47;;;9.16;72.07
9822;BME280;4950;46.042;14.472;2023-02-18T08:09:16;98904.09;;;9.17;72.11
9822;BME280;4950;46.042;14.472;2023-02-18T08:11:43;98913.22;;;9.21;72.29
9822;BME280;4950;46.042;14.472;2023-02-18T08:14:10;98901.09;;;9.21;72.04
9822;BME280;4950;46.042;14.472;2023-02-18T08:16:37;98907.78;;;9.24;71.98
9822;BME280;4950;46.042;14.472;2023-02-18T08:19:03;98913.78;;;9.24;71.27
9822;BME280;4950;46.042;14.472;2023-02-18T08:21:31;98909.28;;;9.26;71.67
9822;BME280;4950;46.042;14.472;2023-02-18T08:23:58;98913.06;;;9.32;71.42
9822;BME280;4950;46.042;14.472;2023-02-18T08:26:26;98920.84;;;9.32;71.13
9822;BME280;4950;46.042;14.472;2023-02-18T08:28:53;98922.06;;;9.38;71.05
9822;BME280;4950;46.042;14.472;2023-02-18T08:31:22;98920.41;;;9.37;71.10
9822;BME280;4950;46.042;14.472;2023-02-18T08:33:50;98931.06;;;9.43;71.19
9822;BME280;4950;46.042;14.472;2023-02-18T08:36:17;98929.69;;;9.39;70.72
9822;BME280;4950;46.042;14.472;2023-02-18T08:38:44;98930.38;;;9.41;70.87
9822;BME280;4950;46.042;14.472;2023-02-18T08:41:11;98920.69;;;9.43;70.96
9822;BME280;4950;46.042;14.472;2023-02-18T08:43:40;98914.00;;;9.41;71.30
9822;BME280;4950;46.042;14.472;2023-02-18T08:46:07;98917.81;;;9.46;71.79
9822;BME280;4950;46.042;14.472;2023-02-18T08:48:34;98911.81;;;9.46;71.53
9822;BME280;4950;46.042;14.472;2023-02-18T08:51:11;98925.56;;;9.46;71.52
9822;BME280;4950;46.042;14.472;2023-02-18T08:53:38;98915.88;;;9.48;71.03
9822;BME280;4950;46.042;14.472;2023-02-18T08:56:05;98917.53;;;9.49;71.47
9822;BME280;4950;46.042;14.472;2023-02-18T08:58:32;98929.25;;;9.54;71.11
9822;BME280;4950;46.042;14.472;2023-02-18T09:01:03;98913.56;;;9.55;71.14
9822;BME280;4950;46.042;14.472;2023-02-18T09:03:30;98912.47;;;9.58;71.05
9822;BME280;4950;46.042;14.472;2023-02-18T09:05:58;98922.16;;;9.56;71.63
9822;BME280;4950;46.042;14.472;2023-02-18T09:08:25;98919.25;;;9.59;72.29
9822;BME280;4950;46.042;14.472;2023-02-18T09:10:54;98907.28;;;9.58;72.04
9822;BME280;4950;46.042;14.472;2023-02-18T09:13:21;98916.00;;;9.57;71.68
9822;BME280;4950;46.042;14.472;2023-02-18T09:15:55;98893.34;;;9.59;71.46
9822;BME280;4950;46.042;14.472;2023-02-18T09:18:23;98891.44;;;9.61;71.04
9822;BME280;4950;46.042;14.472;2023-02-18T09:20:50;98893.19;;;9.60;71.30
9822;BME280;4950;46.042;14.472;2023-02-18T09:23:18;98894.41;;;9.66;70.94
9822;BME280;4950;46.042;14.472;2023-02-18T09:25:45;98893.16;;;9.70;70.95
9822;BME280;4950;46.042;14.472;2023-02-18T09:28:12;98890.56;;;9.70;70.62
9822;BME280;4950;46.042;14.472;2023-02-18T09:30:39;98885.09;;;9.73;70.66
9822;BME280;4950;46.042;14.472;2023-02-18T09:33:05;98891.09;;;9.74;70.81
9822;BME280;4950;46.042;14.472;2023-02-18T09:35:38;98890.28;;;9.73;70.62
9822;BME280;4950;46.042;14.472;2023-02-18T09:38:04;98877.03;;;9.76;70.83
9822;BME280;4950;46.042;14.472;2023-02-18T09:40:32;98884.53;;;9.79;70.84
9822;BME280;4950;46.042;14.472;2023-02-18T09:43:00;98876.47;;;9.82;71.00
9822;BME280;4950;46.042;14.472;2023-02-18T09:45:28;98874.56;;;9.84;70.23
9822;BME280;4950;46.042;14.472;2023-02-18T09:47:55;98892.69;;;9.84;70.59
9822;BME280;4950;46.042;14.472;2023-02-18T09:50:25;98886.63;;;9.94;70.39
9822;BME280;4950;46.042;14.472;2023-02-18T09:52:55;98884.19;;;9.92;70.34
9822;BME280;4950;46.042;14.472;2023-02-18T09:55:26;98879.81;;;9.93;70.78
9822;BME280;4950;46.042;14.472;2023-02-18T09:57:56;98869.97;;;9.96;71.06
9822;BME280;4950;46.042;14.472;2023-02-18T10:00:28;98876.66;;;9.99;71.65
9822;BME280;4950;46.042;14.472;2023-02-18T10:02:58;98876.38;;;10.02;71.26
9822;BME280;4950;46.042;14.472;2023-02-18T10:05:25;98871.84;;;10.04;70.50
9822;BME280;4950;46.042;14.472;2023-02-18T10:07:57;98874.28;;;10.05;70.82
9822;BME280;4950;46.042;14.472;2023-02-18T10:10:33;98858.72;;;10.05;70.95
9822;BME280;4950;46.042;14.472;2023-02-18T10:13:02;98871.00;;;10.03;71.39
9822;BME280;4950;46.042;14.472;2023-02-18T10:15:30;98868.88;;;9.99;71.73
9822;BME280;4950;46.042;14.472;2023-02-18T10:17:58;98880.72;;;10.01;71.35
9822;BME280;4950;46.042;14.472;2023-02-18T10:20:27;98885.75;;;10.03;71.36
9822;BME280;4950;46.042;14.472;2023-02-18T10:22:58;98869.09;;;10.05;71.65
9822;BME280;4950;46.042;14.472;2023-02-18T10:25:27;98866.94;;;10.01;71.87
9822;BME280;4950;46.042;14.472;2023-02-18T10:27:56;98865.16;;;10.01;71.65
9822;BME280;4950;46.042;14.472;2023-02-18T10:30:30;98856.56;;;10.01;71.64
9822;BME280;4950;46.042;14.472;2023-02-18T10:33:01;98857.69;;;9.98;71.98
9822;BME280;4950;46.042;14.472;2023-02-18T10:35:41;98873.06;;;10.00;71.38
9822;BME280;4950;46.042;14.472;2023-02-18T10:38:17;98874.72;;;10.01;71.80
9822;BME280;4950;46.042;14.472;2023-02-18T10:40:53;98858.22;;;10.02;71.46
9822;BME280;4950;46.042;14.472;2023-02-18T10:43:29;98850.72;;;9.99;71.98
9822;BME280;4950;46.042;14.472;2023-02-18T10:46:06;98851.66;;;9.98;71.98
9822;BME280;4950;46.042;14.472;2023-02-18T10:48:59;98864.47;;;9.99;72.32
9822;BME280;4950;46.042;14.472;2023-02-18T10:51:32;98859.00;;;10.02;71.73
9822;BME280;4950;46.042;14.472;2023-02-18T10:54:01;98868.13;;;10.06;72.03
9822;BME280;4950;46.042;14.472;2023-02-18T10:56:37;98866.34;;;10.07;71.70
9822;BME280;4950;46.042;14.472;2023-02-18T10:59:18;98868.94;;;10.07;71.15
9822;BME280;4950;46.042;14.472;2023-02-18T11:01:53;98854.56;;;10.13;71.04
9822;BME280;4950;46.042;14.472;2023-02-18T11:04:24;98843.06;;;10.15;70.93
9822;BME280;4950;46.042;14.472;2023-02-18T11:06:51;98858.38;;;10.18;70.62
9822;BME280;4950;46.042;14.472;2023-02-18T11:09:33;98840.88;;;10.20;70.24
9822;BME280;4950;46.042;14.472;2023-02-18T11:12:05;98845.47;;;10.26;70.20
9822;BME280;4950;46.042;14.472;2023-02-18T11:14:37;98833.47;;;10.25;70.50
9822;BME280;4950;46.042;14.472;2023-02-18T11:17:14;98830.31;;;10.32;70.02
9822;BME280;4950;46.042;14.472;2023-02-18T11:19:42;98826.31;;;10.37;69.85
9822;BME280;4950;46.042;14.472;2023-02-18T11:22:14;98824.44;;;10.47;69.85
9822;BME280;4950;46.042;14.472;2023-02-18T11:24:45;98828.63;;;10.48;69.48
9822;BME280;4950;46.042;14.472;2023-02-18T11:27:21;98830.88;;;10.43;68.99
9822;BME280;4950;46.042;14.472;2023-02-18T11:29:51;98825.84;;;10.42;69.17
9822;BME280;4950;46.042;14.472;2023-02-18T11:32:19;98823.91;;;10.44;68.96
9822;BME280;4950;46.042;14.472;2023-02-18T11:34:48;98803.66;;;10.47;68.98
9822;BME280;4950;46.042;14.472;2023-02-18T11:37:18;98811.31;;;10.49;68.83
9822;BME280;4950;46.042;14.472;2023-02-18T11:39:48;98809.56;;;10.58;68.72
9822;BME280;4950;46.042;14.472;2023-02-18T11:42:18;98811.88;;;10.61;67.87
9822;BME280;4950;46.042;14.472;2023-02-18T11:44:49;98801.34;;;10.62;68.50
9822;BME280;4950;46.042;14.472;2023-02-18T11:47:21;98804.44;;;10.66;67.59
9822;BME280;4950;46.042;14.472;2023-02-18T11:50:13;98806.09;;;10.67;67.76
9822;BME280;4950;46.042;14.472;2023-02-18T11:52:41;98797.03;;;10.71;67.61
9822;BME280;4950;46.042;14.472;2023-02-18T11:55:16;98812.13;;;10.76;67.11
9822;BME280;4950;46.042;14.472;2023-02-18T11:57:46;98798.34;;;10.75;66.96
9822;BME280;4950;46.042;14.472;2023-02-18T12:00:21;98793.00;;;10.77;67.00
9822;BME280;4950;46.042;14.472;2023-02-18T12:02:49;98790.09;;;10.80;66.35
9822;BME280;4950;46.042;14.472;2023-02-18T12:05:20;98798.06;;;10.78;66.33
9822;BME280;4950;46.042;14.472;2023-02-18T12:07:49;98793.66;;;10.79;66.47
9822;BME280;4950;46.042;14.472;2023-02-18T12:10:26;98783.94;;;10.81;66.31
9822;BME280;4950;46.042;14.472;2023-02-18T12:12:59;98787.34;;;10.81;66.70
9822;BME280;4950;46.042;14.472;2023-02-18T12:15:36;98787.03;;;10.84;66.64
9822;BME280;4950;46.042;14.472;2023-02-18T12:18:27;98782.38;;;10.88;66.36
9822;BME280;4950;46.042;14.472;2023-02-18T12:24:09;98765.28;;;10.85;66.47
9822;BME280;4950;46.042;14.472;2023-02-18T12:26:49;98757.50;;;10.85;66.17
9822;BME280;4950;46.042;14.472;2023-02-18T12:29:34;98758.16;;;10.87;66.05
9822;BME280;4950;46.042;14.472;2023-02-18T12:32:21;98742.94;;;10.93;66.49
9822;BME280;4950;46.042;14.472;2023-02-18T12:35:03;98740.34;;;10.93;66.49
9822;BME280;4950;46.042;14.472;2023-02-18T12:38:02;98734.34;;;11.00;65.87
9822;BME280;4950;46.042;14.472;2023-02-18T12:40:39;98734.06;;;11.03;66.26
9822;BME280;4950;46.042;14.472;2023-02-18T12:43:19;98731.28;;;11.05;66.03
9822;BME280;4950;46.042;14.472;2023-02-18T12:46:00;98723.34;;;11.06;65.76
9822;BME280;4950;46.042;14.472;2023-02-18T12:51:45;98717.22;;;11.16;65.38
9822;BME280;4950;46.042;14.472;2023-02-18T12:54:30;98696.56;;;11.14;65.02
9822;BME280;4950;46.042;14.472;2023-02-18T12:57:18;98689.75;;;11.13;65.22
9822;BME280;4950;46.042;14.472;2023-02-18T13:03:04;98692.00;;;11.08;65.20
9822;BME280;4950;46.042;14.472;2023-02-18T13:05:42;98705.00;;;11.08;65.82
9822;BME280;4950;46.042;14.472;2023-02-18T13:08:37;98675.25;;;11.02;65.72
9822;BME280;4950;46.042;14.472;2023-02-18T13:11:26;98677.38;;;11.07;65.45
9822;BME280;4950;46.042;14.472;2023-02-18T13:13:59;98673.00;;;11.07;66.02
9822;BME280;4950;46.042;14.472;2023-02-18T13:16:30;98681.63;;;11.08;65.94
9822;BME280;4950;46.042;14.472;2023-02-18T13:19:02;98671.06;;;11.10;65.83
9822;BME280;4950;46.042;14.472;2023-02-18T13:21:35;98677.22;;;11.09;65.78
9822;BME280;4950;46.042;14.472;2023-02-18T13:24:08;98655.47;;;11.10;66.06
9822;BME280;4950;46.042;14.472;2023-02-18T13:26:35;98647.22;;;11.31;68.62
9822;BME280;4950;46.042;14.472;2023-02-18T13:29:18;98654.06;;;11.32;65.05
9822;BME280;4950;46.042;14.472;2023-02-18T13:31:56;98656.00;;;11.30;65.35
9822;BME280;4950;46.042;14.472;2023-02-18T13:34:32;98649.81;;;11.22;65.08
9822;BME280;4950;46.042;14.472;2023-02-18T13:37:09;98643.50;;;11.25;65.30
9822;BME280;4950;46.042;14.472;2023-02-18T13:39:46;98644.47;;;11.24;65.19
9822;BME280;4950;46.042;14.472;2023-02-18T13:42:33;98647.72;;;11.26;65.16
9822;BME280;4950;46.042;14.472;2023-02-18T13:47:56;98633.91;;;11.25;64.97
9822;BME280;4950;46.042;14.472;2023-02-18T13:50:31;98618.47;;;11.24;65.08
9822;BME280;4950;46.042;14.472;2023-02-18T13:53:19;98616.69;;;11.24;64.77
9822;BME280;4950;46.042;14.472;2023-02-18T13:55:51;98609.22;;;11.30;64.62